sensor_id;sensor_type;location;lat;lon;timestamp;P1;durP1;ratioP1;P2;durP2;ratioP2
6013;SDS011;3035;49.928;8.410;2023-09-19T00:00:28;3.77;;;1.30;;
6013;SDS011;3035;49.928;8.410;2023-09-19T00:02:57;6.50;;;1.50;;
6013;SDS011;3035;49.928;8.410;2023-09-19T00:05:28;7.87;;;2.00;;
6013;SDS011;3035;49.928;8.410;2023-09-19T00:07:57;8.23;;;1.60;;
6013;SDS011;3035;49.928;8.410;2023-09-19T00:10:24;5.20;;;1.50;;
6013;SDS011;3035;49.928;8.410;2023-09-19T00:12:53;8.63;;;1.43;;
6013;SDS011;3035;49.928;8.410;2023-09-19T00:15:23;11.23;;;1.70;;
6013;SDS011;3035;49.928;8.410;2023-09-19T00:17:52;5.77;;;2.07;;
6013;SDS011;3035;49.928;8.410;2023-09-19T00:20:20;1.80;;;1.60;;
6013;SDS011;3035;49.928;8.410;2023-09-19T00:22:49;5.63;;;1.90;;
6013;SDS011;3035;49.928;8.410;2023-09-19T00:25:20;6.13;;;1.80;;
6013;SDS011;3035;49.928;8.410;2023-09-19T00:27:48;6.03;;;1.63;;
6013;SDS011;3035;49.928;8.410;2023-09-19T00:30:16;4.50;;;1.67;;
6013;SDS011;3035;49.928;8.410;2023-09-19T00:32:47;6.80;;;1.50;;
6013;SDS011;3035;49.928;8.410;2023-09-19T00:35:15;4.63;;;1.40;;
6013;SDS011;3035;49.928;8.410;2023-09-19T00:37:43;5.90;;;1.97;;
6013;SDS011;3035;49.928;8.410;2023-09-19T00:40:11;1.97;;;1.67;;
6013;SDS011;3035;49.928;8.410;2023-09-19T00:42:39;4.23;;;2.37;;
6013;SDS011;3035;49.928;8.410;2023-09-19T00:45:08;4.53;;;1.73;;
6013;SDS011;3035;49.928;8.410;2023-09-19T00:47:42;3.43;;;1.53;;
6013;SDS011;3035;49.928;8.410;2023-09-19T00:50:13;6.67;;;1.27;;
6013;SDS011;3035;49.928;8.410;2023-09-19T00:52:42;3.83;;;1.90;;
6013;SDS011;3035;49.928;8.410;2023-09-19T00:55:10;3.87;;;1.97;;
6013;SDS011;3035;49.928;8.410;2023-09-19T00:57:38;5.63;;;1.80;;
6013;SDS011;3035;49.928;8.410;2023-09-19T01:00:06;2.80;;;1.87;;
6013;SDS011;3035;49.928;8.410;2023-09-19T01:02:35;2.93;;;1.77;;
6013;SDS011;3035;49.928;8.410;2023-09-19T01:05:03;9.63;;;1.70;;
6013;SDS011;3035;49.928;8.410;2023-09-19T01:07:32;4.03;;;1.30;;
6013;SDS011;3035;49.928;8.410;2023-09-19T01:10:00;7.97;;;1.80;;
6013;SDS011;3035;49.928;8.410;2023-09-19T01:12:35;4.23;;;2.17;;
6013;SDS011;3035;49.928;8.410;2023-09-19T01:15:21;4.27;;;2.03;;
6013;SDS011;3035;49.928;8.410;2023-09-19T01:17:57;2.87;;;1.80;;
6013;SDS011;3035;49.928;8.410;2023-09-19T01:20:35;2.90;;;1.80;;
6013;SDS011;3035;49.928;8.410;2023-09-19T01:23:07;14.87;;;2.20;;
6013;SDS011;3035;49.928;8.410;2023-09-19T01:25:47;3.67;;;2.17;;
6013;SDS011;3035;49.928;8.410;2023-09-19T01:28:28;3.83;;;2.30;;
6013;SDS011;3035;49.928;8.410;2023-09-19T01:30:57;18.97;;;2.87;;
6013;SDS011;3035;49.928;8.410;2023-09-19T01:33:25;6.30;;;1.80;;
6013;SDS011;3035;49.928;8.410;2023-09-19T01:35:53;4.63;;;2.37;;
6013;SDS011;3035;49.928;8.410;2023-09-19T01:38:22;4.00;;;1.73;;
6013;SDS011;3035;49.928;8.410;2023-09-19T01:40:56;3.70;;;1.90;;
6013;SDS011;3035;49.928;8.410;2023-09-19T01:43:21;10.40;;;2.13;;
6013;SDS011;3035;49.928;8.410;2023-09-19T01:45:59;5.83;;;2.10;;
6013;SDS011;3035;49.928;8.410;2023-09-19T01:48:30;5.30;;;1.70;;
6013;SDS011;3035;49.928;8.410;2023-09-19T01:51:10;4.40;;;1.80;;
6013;SDS011;3035;49.928;8.410;2023-09-19T01:53:41;2.40;;;2.20;;
6013;SDS011;3035;49.928;8.410;2023-09-19T01:56:20;6.27;;;2.00;;
6013;SDS011;3035;49.928;8.410;2023-09-19T01:58:49;3.37;;;2.40;;
6013;SDS011;3035;49.928;8.410;2023-09-19T02:01:19;7.83;;;2.50;;
6013;SDS011;3035;49.928;8.410;2023-09-19T02:03:48;2.37;;;2.00;;
6013;SDS011;3035;49.928;8.410;2023-09-19T02:06:17;5.80;;;2.30;;
6013;SDS011;3035;49.928;8.410;2023-09-19T02:08:45;3.80;;;2.13;;
6013;SDS011;3035;49.928;8.410;2023-09-19T02:11:13;7.00;;;2.60;;
6013;SDS011;3035;49.928;8.410;2023-09-19T02:13:41;11.67;;;2.70;;
6013;SDS011;3035;49.928;8.410;2023-09-19T02:16:10;4.43;;;2.43;;
6013;SDS011;3035;49.928;8.410;2023-09-19T02:18:38;5.73;;;2.30;;
6013;SDS011;3035;49.928;8.410;2023-09-19T02:21:07;6.97;;;2.57;;
6013;SDS011;3035;49.928;8.410;2023-09-19T02:23:35;8.20;;;2.67;;
6013;SDS011;3035;49.928;8.410;2023-09-19T02:26:04;3.77;;;2.60;;
6013;SDS011;3035;49.928;8.410;2023-09-19T02:28:32;6.63;;;2.60;;
6013;SDS011;3035;49.928;8.410;2023-09-19T02:31:00;9.63;;;3.53;;
6013;SDS011;3035;49.928;8.410;2023-09-19T02:33:28;4.97;;;2.90;;
6013;SDS011;3035;49.928;8.410;2023-09-19T02:35:58;4.33;;;2.73;;
6013;SDS011;3035;49.928;8.410;2023-09-19T02:38:26;4.77;;;2.60;;
6013;SDS011;3035;49.928;8.410;2023-09-19T02:40:55;7.83;;;3.17;;
6013;SDS011;3035;49.928;8.410;2023-09-19T02:43:23;6.80;;;3.10;;
6013;SDS011;3035;49.928;8.410;2023-09-19T02:45:51;7.87;;;2.70;;
6013;SDS011;3035;49.928;8.410;2023-09-19T02:48:20;4.77;;;2.63;;
6013;SDS011;3035;49.928;8.410;2023-09-19T02:50:49;5.20;;;2.70;;
6013;SDS011;3035;49.928;8.410;2023-09-19T02:53:17;4.40;;;2.47;;
6013;SDS011;3035;49.928;8.410;2023-09-19T02:55:46;8.63;;;2.83;;
6013;SDS011;3035;49.928;8.410;2023-09-19T02:58:15;4.30;;;2.63;;
6013;SDS011;3035;49.928;8.410;2023-09-19T03:00:43;9.63;;;2.90;;
6013;SDS011;3035;49.928;8.410;2023-09-19T03:03:13;7.53;;;4.10;;
6013;SDS011;3035;49.928;8.410;2023-09-19T03:05:41;11.00;;;2.53;;
6013;SDS011;3035;49.928;8.410;2023-09-19T03:08:10;4.63;;;2.63;;
6013;SDS011;3035;49.928;8.410;2023-09-19T03:10:38;3.43;;;2.83;;
6013;SDS011;3035;49.928;8.410;2023-09-19T03:13:06;5.03;;;2.53;;
6013;SDS011;3035;49.928;8.410;2023-09-19T03:15:35;8.87;;;3.00;;
6013;SDS011;3035;49.928;8.410;2023-09-19T03:18:05;6.03;;;2.87;;
6013;SDS011;3035;49.928;8.410;2023-09-19T03:20:33;5.40;;;3.23;;
6013;SDS011;3035;49.928;8.410;2023-09-19T03:23:01;5.23;;;3.10;;
6013;SDS011;3035;49.928;8.410;2023-09-19T03:25:29;3.10;;;2.17;;
6013;SDS011;3035;49.928;8.410;2023-09-19T03:27:58;6.73;;;3.20;;
6013;SDS011;3035;49.928;8.410;2023-09-19T03:30:26;5.70;;;2.80;;
6013;SDS011;3035;49.928;8.410;2023-09-19T03:32:54;7.00;;;2.23;;
6013;SDS011;3035;49.928;8.410;2023-09-19T03:35:22;4.10;;;2.63;;
6013;SDS011;3035;49.928;8.410;2023-09-19T03:37:50;14.03;;;3.00;;
6013;SDS011;3035;49.928;8.410;2023-09-19T03:40:19;8.57;;;2.20;;
6013;SDS011;3035;49.928;8.410;2023-09-19T03:42:47;7.50;;;2.83;;
6013;SDS011;3035;49.928;8.410;2023-09-19T03:45:15;2.43;;;1.97;;
6013;SDS011;3035;49.928;8.410;2023-09-19T03:47:43;7.77;;;2.13;;
6013;SDS011;3035;49.928;8.410;2023-09-19T03:50:11;3.57;;;2.10;;
6013;SDS011;3035;49.928;8.410;2023-09-19T03:52:42;8.93;;;2.47;;
6013;SDS011;3035;49.928;8.410;2023-09-19T03:55:11;3.83;;;2.23;;
6013;SDS011;3035;49.928;8.410;2023-09-19T03:57:39;2.57;;;2.10;;
6013;SDS011;3035;49.928;8.410;2023-09-19T04:00:07;19.20;;;2.43;;
6013;SDS011;3035;49.928;8.410;2023-09-19T04:02:37;5.27;;;2.70;;
6013;SDS011;3035;49.928;8.410;2023-09-19T04:05:05;6.90;;;2.90;;
6013;SDS011;3035;49.928;8.410;2023-09-19T04:07:33;4.80;;;2.53;;
6013;SDS011;3035;49.928;8.410;2023-09-19T04:10:01;8.03;;;3.33;;
6013;SDS011;3035;49.928;8.410;2023-09-19T04:12:29;6.03;;;2.33;;
6013;SDS011;3035;49.928;8.410;2023-09-19T04:14:58;3.87;;;2.23;;
6013;SDS011;3035;49.928;8.410;2023-09-19T04:17:26;7.80;;;2.40;;
6013;SDS011;3035;49.928;8.410;2023-09-19T04:19:54;8.03;;;2.30;;
6013;SDS011;3035;49.928;8.410;2023-09-19T04:22:22;9.17;;;3.13;;
6013;SDS011;3035;49.928;8.410;2023-09-19T04:24:50;2.50;;;2.30;;
6013;SDS011;3035;49.928;8.410;2023-09-19T04:27:19;7.93;;;2.23;;
6013;SDS011;3035;49.928;8.410;2023-09-19T04:29:47;4.67;;;2.57;;
6013;SDS011;3035;49.928;8.410;2023-09-19T04:32:15;3.97;;;2.73;;
6013;SDS011;3035;49.928;8.410;2023-09-19T04:34:43;7.83;;;3.03;;
6013;SDS011;3035;49.928;8.410;2023-09-19T04:37:11;6.57;;;2.80;;
6013;SDS011;3035;49.928;8.410;2023-09-19T04:39:40;3.17;;;2.30;;
6013;SDS011;3035;49.928;8.410;2023-09-19T04:42:08;6.90;;;2.43;;
6013;SDS011;3035;49.928;8.410;2023-09-19T04:44:36;6.60;;;2.40;;
6013;SDS011;3035;49.928;8.410;2023-09-19T04:47:04;2.33;;;2.00;;
6013;SDS011;3035;49.928;8.410;2023-09-19T04:49:33;3.50;;;2.10;;
6013;SDS011;3035;49.928;8.410;2023-09-19T04:52:01;3.40;;;2.30;;
6013;SDS011;3035;49.928;8.410;2023-09-19T04:54:29;2.93;;;2.63;;
6013;SDS011;3035;49.928;8.410;2023-09-19T04:56:57;6.83;;;2.37;;
6013;SDS011;3035;49.928;8.410;2023-09-19T04:59:26;7.60;;;2.60;;
6013;SDS011;3035;49.928;8.410;2023-09-19T05:01:54;5.40;;;2.73;;
6013;SDS011;3035;49.928;8.410;2023-09-19T05:04:23;3.97;;;2.60;;
6013;SDS011;3035;49.928;8.410;2023-09-19T05:06:52;7.20;;;2.37;;
6013;SDS011;3035;49.928;8.410;2023-09-19T05:09:20;3.13;;;1.90;;
6013;SDS011;3035;49.928;8.410;2023-09-19T05:11:48;5.03;;;2.53;;
6013;SDS011;3035;49.928;8.410;2023-09-19T05:14:17;6.13;;;2.40;;
6013;SDS011;3035;49.928;8.410;2023-09-19T05:16:46;4.83;;;1.90;;
6013;SDS011;3035;49.928;8.410;2023-09-19T05:19:15;2.90;;;2.17;;
6013;SDS011;3035;49.928;8.410;2023-09-19T05:21:44;3.67;;;2.20;;
6013;SDS011;3035;49.928;8.410;2023-09-19T05:24:12;4.57;;;2.00;;
6013;SDS011;3035;49.928;8.410;2023-09-19T05:26:41;8.57;;;2.77;;
6013;SDS011;3035;49.928;8.410;2023-09-19T05:29:10;4.90;;;2.57;;
6013;SDS011;3035;49.928;8.410;2023-09-19T05:31:39;5.10;;;2.53;;
6013;SDS011;3035;49.928;8.410;2023-09-19T05:34:07;8.03;;;3.07;;
6013;SDS011;3035;49.928;8.410;2023-09-19T05:36:35;6.60;;;2.80;;
6013;SDS011;3035;49.928;8.410;2023-09-19T05:39:03;5.63;;;2.77;;
6013;SDS011;3035;49.928;8.410;2023-09-19T05:41:31;6.93;;;3.53;;
6013;SDS011;3035;49.928;8.410;2023-09-19T05:44:00;5.40;;;3.10;;
6013;SDS011;3035;49.928;8.410;2023-09-19T05:46:28;4.63;;;3.17;;
6013;SDS011;3035;49.928;8.410;2023-09-19T05:48:56;5.43;;;3.40;;
6013;SDS011;3035;49.928;8.410;2023-09-19T05:51:25;9.10;;;3.53;;
6013;SDS011;3035;49.928;8.410;2023-09-19T05:53:55;11.23;;;3.73;;
6013;SDS011;3035;49.928;8.410;2023-09-19T05:56:23;7.03;;;3.87;;
6013;SDS011;3035;49.928;8.410;2023-09-19T05:58:52;8.60;;;3.40;;
6013;SDS011;3035;49.928;8.410;2023-09-19T06:01:20;7.13;;;3.57;;
6013;SDS011;3035;49.928;8.410;2023-09-19T06:03:48;8.40;;;3.47;;
6013;SDS011;3035;49.928;8.410;2023-09-19T06:06:16;4.53;;;3.27;;
6013;SDS011;3035;49.928;8.410;2023-09-19T06:08:45;6.70;;;3.70;;
6013;SDS011;3035;49.928;8.410;2023-09-19T06:11:13;8.37;;;3.90;;
6013;SDS011;3035;49.928;8.410;2023-09-19T06:13:41;6.23;;;3.80;;
6013;SDS011;3035;49.928;8.410;2023-09-19T06:16:09;4.07;;;2.93;;
6013;SDS011;3035;49.928;8.410;2023-09-19T06:18:37;6.70;;;4.00;;
6013;SDS011;3035;49.928;8.410;2023-09-19T06:21:06;4.40;;;2.90;;
6013;SDS011;3035;49.928;8.410;2023-09-19T06:23:35;7.20;;;4.27;;
6013;SDS011;3035;49.928;8.410;2023-09-19T06:26:03;6.30;;;3.90;;
6013;SDS011;3035;49.928;8.410;2023-09-19T06:28:31;10.43;;;2.90;;
6013;SDS011;3035;49.928;8.410;2023-09-19T06:31:01;8.33;;;2.77;;
6013;SDS011;3035;49.928;8.410;2023-09-19T06:33:27;3.97;;;2.60;;
6013;SDS011;3035;49.928;8.410;2023-09-19T06:35:56;7.07;;;2.93;;
6013;SDS011;3035;49.928;8.410;2023-09-19T06:38:24;5.90;;;2.50;;
6013;SDS011;3035;49.928;8.410;2023-09-19T06:40:52;5.13;;;2.70;;
6013;SDS011;3035;49.928;8.410;2023-09-19T06:43:20;7.57;;;2.50;;
6013;SDS011;3035;49.928;8.410;2023-09-19T06:45:48;4.73;;;2.17;;
6013;SDS011;3035;49.928;8.410;2023-09-19T06:48:17;6.87;;;2.07;;
6013;SDS011;3035;49.928;8.410;2023-09-19T06:50:45;8.57;;;2.73;;
6013;SDS011;3035;49.928;8.410;2023-09-19T06:53:13;11.73;;;2.53;;
6013;SDS011;3035;49.928;8.410;2023-09-19T06:55:41;6.40;;;2.23;;
6013;SDS011;3035;49.928;8.410;2023-09-19T06:58:09;9.53;;;2.20;;
6013;SDS011;3035;49.928;8.410;2023-09-19T07:00:38;5.10;;;2.00;;
6013;SDS011;3035;49.928;8.410;2023-09-19T07:03:06;5.97;;;2.00;;
6013;SDS011;3035;49.928;8.410;2023-09-19T07:05:34;6.77;;;2.37;;
6013;SDS011;3035;49.928;8.410;2023-09-19T07:08:03;5.80;;;1.90;;
6013;SDS011;3035;49.928;8.410;2023-09-19T07:10:32;27.70;;;2.80;;
6013;SDS011;3035;49.928;8.410;2023-09-19T07:13:00;11.67;;;2.13;;
6013;SDS011;3035;49.928;8.410;2023-09-19T07:15:31;9.13;;;2.20;;
6013;SDS011;3035;49.928;8.410;2023-09-19T07:17:57;7.60;;;2.00;;
6013;SDS011;3035;49.928;8.410;2023-09-19T07:20:26;6.03;;;2.37;;
6013;SDS011;3035;49.928;8.410;2023-09-19T07:22:54;5.33;;;2.00;;
6013;SDS011;3035;49.928;8.410;2023-09-19T07:25:22;5.90;;;2.17;;
6013;SDS011;3035;49.928;8.410;2023-09-19T07:27:50;3.73;;;2.00;;
6013;SDS011;3035;49.928;8.410;2023-09-19T07:30:18;3.63;;;1.73;;
6013;SDS011;3035;49.928;8.410;2023-09-19T07:32:47;7.87;;;2.40;;
6013;SDS011;3035;49.928;8.410;2023-09-19T07:35:15;5.07;;;2.40;;
6013;SDS011;3035;49.928;8.410;2023-09-19T07:37:43;15.13;;;2.40;;
6013;SDS011;3035;49.928;8.410;2023-09-19T07:40:11;6.60;;;2.30;;
6013;SDS011;3035;49.928;8.410;2023-09-19T07:42:39;4.40;;;1.80;;
6013;SDS011;3035;49.928;8.410;2023-09-19T07:45:08;3.60;;;1.83;;
6013;SDS011;3035;49.928;8.410;2023-09-19T07:47:36;6.70;;;2.40;;
6013;SDS011;3035;49.928;8.410;2023-09-19T07:50:05;8.73;;;2.20;;
6013;SDS011;3035;49.928;8.410;2023-09-19T07:52:33;4.53;;;2.10;;
6013;SDS011;3035;49.928;8.410;2023-09-19T07:55:01;5.23;;;2.00;;
6013;SDS011;3035;49.928;8.410;2023-09-19T07:57:29;7.90;;;1.70;;
6013;SDS011;3035;49.928;8.410;2023-09-19T07:59:57;11.07;;;1.97;;
6013;SDS011;3035;49.928;8.410;2023-09-19T08:02:26;2.57;;;1.40;;
6013;SDS011;3035;49.928;8.410;2023-09-19T08:04:54;3.60;;;1.83;;
6013;SDS011;3035;49.928;8.410;2023-09-19T08:07:22;12.77;;;2.17;;
6013;SDS011;3035;49.928;8.410;2023-09-19T08:09:50;7.43;;;2.33;;
6013;SDS011;3035;49.928;8.410;2023-09-19T08:12:19;6.13;;;2.10;;
6013;SDS011;3035;49.928;8.410;2023-09-19T08:14:47;9.07;;;1.80;;
6013;SDS011;3035;49.928;8.410;2023-09-19T08:17:15;8.07;;;1.60;;
6013;SDS011;3035;49.928;8.410;2023-09-19T08:19:43;8.07;;;2.27;;
6013;SDS011;3035;49.928;8.410;2023-09-19T08:22:11;5.67;;;2.00;;
6013;SDS011;3035;49.928;8.410;2023-09-19T08:24:40;15.83;;;2.63;;
6013;SDS011;3035;49.928;8.410;2023-09-19T08:27:08;4.83;;;1.70;;
6013;SDS011;3035;49.928;8.410;2023-09-19T08:29:36;7.50;;;2.23;;
6013;SDS011;3035;49.928;8.410;2023-09-19T08:32:04;6.80;;;2.97;;
6013;SDS011;3035;49.928;8.410;2023-09-19T08:34:32;9.23;;;2.17;;
6013;SDS011;3035;49.928;8.410;2023-09-19T08:37:01;6.40;;;1.73;;
6013;SDS011;3035;49.928;8.410;2023-09-19T08:39:29;3.70;;;1.90;;
6013;SDS011;3035;49.928;8.410;2023-09-19T08:41:57;6.50;;;1.80;;
6013;SDS011;3035;49.928;8.410;2023-09-19T08:44:27;3.70;;;1.87;;
6013;SDS011;3035;49.928;8.410;2023-09-19T08:47:09;7.80;;;2.50;;
6013;SDS011;3035;49.928;8.410;2023-09-19T08:49:27;7.13;;;1.87;;
6013;SDS011;3035;49.928;8.410;2023-09-19T08:52:01;4.27;;;1.73;;
6013;SDS011;3035;49.928;8.410;2023-09-19T08:54:29;5.27;;;1.40;;
6013;SDS011;3035;49.928;8.410;2023-09-19T08:56:58;14.93;;;2.90;;
6013;SDS011;3035;49.928;8.410;2023-09-19T08:59:26;15.63;;;2.43;;
6013;SDS011;3035;49.928;8.410;2023-09-19T09:01:54;6.50;;;2.10;;
6013;SDS011;3035;49.928;8.410;2023-09-19T09:04:22;9.90;;;2.03;;
6013;SDS011;3035;49.928;8.410;2023-09-19T09:06:51;5.70;;;2.13;;
6013;SDS011;3035;49.928;8.410;2023-09-19T09:09:20;6.63;;;1.77;;
6013;SDS011;3035;49.928;8.410;2023-09-19T09:11:48;11.50;;;2.30;;
6013;SDS011;3035;49.928;8.410;2023-09-19T09:14:18;10.30;;;2.23;;
6013;SDS011;3035;49.928;8.410;2023-09-19T09:16:47;4.90;;;1.97;;
6013;SDS011;3035;49.928;8.410;2023-09-19T09:19:15;9.43;;;1.93;;
6013;SDS011;3035;49.928;8.410;2023-09-19T09:21:43;6.50;;;1.70;;
6013;SDS011;3035;49.928;8.410;2023-09-19T09:26:56;9.57;;;2.07;;
6013;SDS011;3035;49.928;8.410;2023-09-19T09:32:18;8.13;;;2.43;;
6013;SDS011;3035;49.928;8.410;2023-09-19T09:35:02;5.30;;;2.20;;
6013;SDS011;3035;49.928;8.410;2023-09-19T09:37:30;7.13;;;2.13;;
6013;SDS011;3035;49.928;8.410;2023-09-19T09:39:59;10.93;;;1.87;;
6013;SDS011;3035;49.928;8.410;2023-09-19T09:42:29;4.97;;;1.50;;
6013;SDS011;3035;49.928;8.410;2023-09-19T09:45:20;6.13;;;2.20;;
6013;SDS011;3035;49.928;8.410;2023-09-19T09:48:04;15.33;;;2.33;;
6013;SDS011;3035;49.928;8.410;2023-09-19T09:50:33;4.40;;;1.50;;
6013;SDS011;3035;49.928;8.410;2023-09-19T09:56:04;9.33;;;1.97;;
6013;SDS011;3035;49.928;8.410;2023-09-19T09:58:33;8.80;;;1.93;;
6013;SDS011;3035;49.928;8.410;2023-09-19T10:01:01;8.73;;;2.13;;
6013;SDS011;3035;49.928;8.410;2023-09-19T10:03:31;7.00;;;2.90;;
6013;SDS011;3035;49.928;8.410;2023-09-19T10:05:59;8.03;;;1.83;;
6013;SDS011;3035;49.928;8.410;2023-09-19T10:08:27;5.37;;;2.03;;
6013;SDS011;3035;49.928;8.410;2023-09-19T10:10:55;6.50;;;2.17;;
6013;SDS011;3035;49.928;8.410;2023-09-19T10:13:24;5.10;;;1.93;;
6013;SDS011;3035;49.928;8.410;2023-09-19T10:15:52;4.60;;;2.00;;
6013;SDS011;3035;49.928;8.410;2023-09-19T10:18:22;7.47;;;1.80;;
6013;SDS011;3035;49.928;8.410;2023-09-19T10:20:49;9.57;;;2.10;;
6013;SDS011;3035;49.928;8.410;2023-09-19T10:23:18;7.07;;;1.73;;
6013;SDS011;3035;49.928;8.410;2023-09-19T10:25:53;3.00;;;1.70;;
6013;SDS011;3035;49.928;8.410;2023-09-19T10:28:21;8.40;;;2.73;;
6013;SDS011;3035;49.928;8.410;2023-09-19T10:30:50;6.47;;;2.03;;
6013;SDS011;3035;49.928;8.410;2023-09-19T10:33:20;10.37;;;1.87;;
6013;SDS011;3035;49.928;8.410;2023-09-19T10:35:48;7.70;;;1.90;;
6013;SDS011;3035;49.928;8.410;2023-09-19T10:38:17;10.53;;;2.20;;
6013;SDS011;3035;49.928;8.410;2023-09-19T10:40:49;6.77;;;2.77;;
6013;SDS011;3035;49.928;8.410;2023-09-19T10:43:19;13.77;;;2.67;;
6013;SDS011;3035;49.928;8.410;2023-09-19T10:45:47;11.93;;;2.13;;
6013;SDS011;3035;49.928;8.410;2023-09-19T10:48:16;19.67;;;2.33;;
6013;SDS011;3035;49.928;8.410;2023-09-19T10:50:49;8.73;;;2.33;;
6013;SDS011;3035;49.928;8.410;2023-09-19T10:53:17;9.23;;;2.30;;
6013;SDS011;3035;49.928;8.410;2023-09-19T10:55:50;12.27;;;1.90;;
6013;SDS011;3035;49.928;8.410;2023-09-19T10:58:25;9.90;;;2.17;;
6013;SDS011;3035;49.928;8.410;2023-09-19T11:00:56;9.83;;;2.10;;
6013;SDS011;3035;49.928;8.410;2023-09-19T11:03:25;8.53;;;1.80;;
6013;SDS011;3035;49.928;8.410;2023-09-19T11:06:00;9.87;;;2.47;;
6013;SDS011;3035;49.928;8.410;2023-09-19T11:08:27;7.20;;;2.13;;
6013;SDS011;3035;49.928;8.410;2023-09-19T11:10:56;6.20;;;2.10;;
6013;SDS011;3035;49.928;8.410;2023-09-19T11:13:27;11.43;;;2.23;;
6013;SDS011;3035;49.928;8.410;2023-09-19T11:16:04;13.53;;;1.90;;
6013;SDS011;3035;49.928;8.410;2023-09-19T11:27:09;12.60;;;2.40;;
6013;SDS011;3035;49.928;8.410;2023-09-19T11:29:36;14.23;;;2.10;;
6013;SDS011;3035;49.928;8.410;2023-09-19T11:32:06;9.30;;;1.97;;
6013;SDS011;3035;49.928;8.410;2023-09-19T11:34:43;7.43;;;2.33;;
6013;SDS011;3035;49.928;8.410;2023-09-19T11:40:27;6.90;;;2.30;;
6013;SDS011;3035;49.928;8.410;2023-09-19T11:42:56;6.20;;;1.80;;
6013;SDS011;3035;49.928;8.410;2023-09-19T11:48:22;13.47;;;2.87;;
6013;SDS011;3035;49.928;8.410;2023-09-19T11:50:50;5.17;;;2.07;;
6013;SDS011;3035;49.928;8.410;2023-09-19T11:53:19;8.30;;;1.90;;
6013;SDS011;3035;49.928;8.410;2023-09-19T11:55:47;8.80;;;2.10;;
6013;SDS011;3035;49.928;8.410;2023-09-19T11:58:15;5.90;;;1.80;;
6013;SDS011;3035;49.928;8.410;2023-09-19T12:00:44;7.87;;;2.47;;
6013;SDS011;3035;49.928;8.410;2023-09-19T12:03:12;8.97;;;2.07;;
6013;SDS011;3035;49.928;8.410;2023-09-19T12:05:41;5.43;;;1.30;;
6013;SDS011;3035;49.928;8.410;2023-09-19T12:08:11;3.90;;;1.60;;
6013;SDS011;3035;49.928;8.410;2023-09-19T12:10:44;3.83;;;1.70;;
6013;SDS011;3035;49.928;8.410;2023-09-19T12:13:16;8.70;;;1.57;;
6013;SDS011;3035;49.928;8.410;2023-09-19T12:15:44;4.10;;;1.70;;
6013;SDS011;3035;49.928;8.410;2023-09-19T12:20:56;5.00;;;1.70;;
6013;SDS011;3035;49.928;8.410;2023-09-19T12:23:24;8.70;;;2.23;;
6013;SDS011;3035;49.928;8.410;2023-09-19T12:25:54;4.50;;;1.70;;
6013;SDS011;3035;49.928;8.410;2023-09-19T12:28:23;5.37;;;1.70;;
6013;SDS011;3035;49.928;8.410;2023-09-19T12:30:50;4.80;;;1.70;;
6013;SDS011;3035;49.928;8.410;2023-09-19T12:33:20;8.27;;;1.30;;
6013;SDS011;3035;49.928;8.410;2023-09-19T12:35:48;2.07;;;1.40;;
6013;SDS011;3035;49.928;8.410;2023-09-19T12:38:24;6.27;;;2.43;;
6013;SDS011;3035;49.928;8.410;2023-09-19T12:40:55;8.10;;;1.60;;
6013;SDS011;3035;49.928;8.410;2023-09-19T12:43:24;3.17;;;1.70;;
6013;SDS011;3035;49.928;8.410;2023-09-19T12:45:52;11.40;;;1.83;;
6013;SDS011;3035;49.928;8.410;2023-09-19T12:48:21;6.53;;;1.97;;
6013;SDS011;3035;49.928;8.410;2023-09-19T12:53:35;9.77;;;2.10;;
6013;SDS011;3035;49.928;8.410;2023-09-19T12:56:09;6.00;;;1.73;;
6013;SDS011;3035;49.928;8.410;2023-09-19T13:01:22;7.47;;;1.87;;
6013;SDS011;3035;49.928;8.410;2023-09-19T13:06:42;6.67;;;1.70;;
6013;SDS011;3035;49.928;8.410;2023-09-19T13:09:11;9.23;;;1.83;;
6013;SDS011;3035;49.928;8.410;2023-09-19T13:11:39;4.00;;;1.40;;
6013;SDS011;3035;49.928;8.410;2023-09-19T13:14:17;5.60;;;2.00;;
6013;SDS011;3035;49.928;8.410;2023-09-19T13:22:35;8.20;;;1.87;;
6013;SDS011;3035;49.928;8.410;2023-09-19T13:24:56;4.63;;;1.43;;
6013;SDS011;3035;49.928;8.410;2023-09-19T13:27:24;4.40;;;1.40;;
6013;SDS011;3035;49.928;8.410;2023-09-19T13:29:53;6.87;;;2.07;;
6013;SDS011;3035;49.928;8.410;2023-09-19T13:32:21;4.53;;;1.70;;
6013;SDS011;3035;49.928;8.410;2023-09-19T13:34:49;5.93;;;1.70;;
6013;SDS011;3035;49.928;8.410;2023-09-19T13:37:17;3.93;;;1.83;;
6013;SDS011;3035;49.928;8.410;2023-09-19T13:39:45;6.30;;;1.60;;
6013;SDS011;3035;49.928;8.410;2023-09-19T13:42:14;2.80;;;1.60;;
6013;SDS011;3035;49.928;8.410;2023-09-19T13:44:42;2.80;;;1.53;;
6013;SDS011;3035;49.928;8.410;2023-09-19T13:47:10;5.17;;;2.13;;
6013;SDS011;3035;49.928;8.410;2023-09-19T13:49:38;6.13;;;1.67;;
6013;SDS011;3035;49.928;8.410;2023-09-19T13:52:06;4.57;;;1.63;;
6013;SDS011;3035;49.928;8.410;2023-09-19T13:54:35;5.83;;;1.67;;
6013;SDS011;3035;49.928;8.410;2023-09-19T13:57:03;5.17;;;1.57;;
6013;SDS011;3035;49.928;8.410;2023-09-19T13:59:31;3.57;;;1.70;;
6013;SDS011;3035;49.928;8.410;2023-09-19T14:01:59;16.57;;;1.70;;
6013;SDS011;3035;49.928;8.410;2023-09-19T14:04:27;6.27;;;1.27;;
6013;SDS011;3035;49.928;8.410;2023-09-19T14:06:56;7.73;;;1.87;;
6013;SDS011;3035;49.928;8.410;2023-09-19T14:09:24;5.43;;;1.90;;
6013;SDS011;3035;49.928;8.410;2023-09-19T14:11:52;4.23;;;1.83;;
6013;SDS011;3035;49.928;8.410;2023-09-19T14:14:20;3.83;;;1.87;;
6013;SDS011;3035;49.928;8.410;2023-09-19T14:16:48;5.33;;;1.60;;
6013;SDS011;3035;49.928;8.410;2023-09-19T14:19:17;4.40;;;1.57;;
6013;SDS011;3035;49.928;8.410;2023-09-19T14:21:45;4.00;;;1.60;;
6013;SDS011;3035;49.928;8.410;2023-09-19T14:24:16;6.50;;;1.67;;
6013;SDS011;3035;49.928;8.410;2023-09-19T14:26:44;5.97;;;1.40;;
6013;SDS011;3035;49.928;8.410;2023-09-19T14:29:12;4.67;;;1.77;;
6013;SDS011;3035;49.928;8.410;2023-09-19T14:31:41;5.63;;;1.50;;
6013;SDS011;3035;49.928;8.410;2023-09-19T14:34:09;7.60;;;1.70;;
6013;SDS011;3035;49.928;8.410;2023-09-19T14:36:37;3.60;;;1.90;;
6013;SDS011;3035;49.928;8.410;2023-09-19T14:39:05;3.13;;;1.30;;
6013;SDS011;3035;49.928;8.410;2023-09-19T14:41:33;4.20;;;1.40;;
6013;SDS011;3035;49.928;8.410;2023-09-19T14:44:02;3.70;;;1.80;;
6013;SDS011;3035;49.928;8.410;2023-09-19T14:46:30;6.90;;;1.40;;
6013;SDS011;3035;49.928;8.410;2023-09-19T14:48:58;2.70;;;1.40;;
6013;SDS011;3035;49.928;8.410;2023-09-19T14:51:28;2.77;;;1.40;;
6013;SDS011;3035;49.928;8.410;2023-09-19T14:53:54;2.00;;;1.27;;
6013;SDS011;3035;49.928;8.410;2023-09-19T14:56:23;3.07;;;1.40;;
6013;SDS011;3035;49.928;8.410;2023-09-19T14:58:52;4.80;;;1.80;;
6013;SDS011;3035;49.928;8.410;2023-09-19T15:01:20;3.50;;;1.40;;
6013;SDS011;3035;49.928;8.410;2023-09-19T15:03:48;2.83;;;1.10;;
6013;SDS011;3035;49.928;8.410;2023-09-19T15:06:17;4.97;;;1.40;;
6013;SDS011;3035;49.928;8.410;2023-09-19T15:08:46;5.43;;;1.40;;
6013;SDS011;3035;49.928;8.410;2023-09-19T15:11:14;7.97;;;1.53;;
6013;SDS011;3035;49.928;8.410;2023-09-19T15:13:43;2.50;;;1.03;;
6013;SDS011;3035;49.928;8.410;2023-09-19T15:16:10;3.23;;;1.37;;
6013;SDS011;3035;49.928;8.410;2023-09-19T15:18:40;3.80;;;1.70;;
6013;SDS011;3035;49.928;8.410;2023-09-19T15:21:08;6.23;;;1.67;;
6013;SDS011;3035;49.928;8.410;2023-09-19T15:23:36;9.97;;;1.77;;
6013;SDS011;3035;49.928;8.410;2023-09-19T15:26:05;2.60;;;1.40;;
6013;SDS011;3035;49.928;8.410;2023-09-19T15:28:33;4.60;;;2.03;;
6013;SDS011;3035;49.928;8.410;2023-09-19T15:31:02;6.83;;;1.43;;
6013;SDS011;3035;49.928;8.410;2023-09-19T15:33:30;4.57;;;1.33;;
6013;SDS011;3035;49.928;8.410;2023-09-19T15:36:00;2.17;;;1.20;;
6013;SDS011;3035;49.928;8.410;2023-09-19T15:41:34;5.90;;;1.70;;
6013;SDS011;3035;49.928;8.410;2023-09-19T15:44:02;6.10;;;2.17;;
6013;SDS011;3035;49.928;8.410;2023-09-19T15:46:31;3.77;;;1.33;;
6013;SDS011;3035;49.928;8.410;2023-09-19T15:49:02;1.83;;;1.40;;
6013;SDS011;3035;49.928;8.410;2023-09-19T15:51:31;5.67;;;1.33;;
6013;SDS011;3035;49.928;8.410;2023-09-19T15:53:59;15.20;;;1.50;;
6013;SDS011;3035;49.928;8.410;2023-09-19T15:56:27;1.60;;;1.00;;
6013;SDS011;3035;49.928;8.410;2023-09-19T15:58:56;3.43;;;1.53;;
6013;SDS011;3035;49.928;8.410;2023-09-19T16:01:24;6.10;;;1.30;;
6013;SDS011;3035;49.928;8.410;2023-09-19T16:03:52;10.80;;;1.50;;
6013;SDS011;3035;49.928;8.410;2023-09-19T16:06:22;4.13;;;1.20;;
6013;SDS011;3035;49.928;8.410;2023-09-19T16:08:52;5.27;;;1.30;;